createdAt,value
2017-11-03T00:02:08.099Z,9.20
2017-11-03T00:04:36.515Z,9.20
2017-11-03T00:07:04.148Z,9.20
2017-11-03T00:09:31.766Z,9.20
2017-11-03T00:11:59.414Z,9.30
2017-11-03T00:14:27.052Z,9.30
2017-11-03T00:16:54.698Z,9.30
2017-11-03T00:19:22.350Z,9.30
2017-11-03T00:21:49.962Z,9.30
2017-11-03T00:24:17.620Z,9.30
2017-11-03T00:26:45.998Z,9.30
2017-11-03T00:29:13.646Z,9.30
2017-11-03T00:31:41.275Z,9.30
2017-11-03T00:34:08.909Z,9.30
2017-11-03T00:36:37.344Z,9.30
2017-11-03T00:39:04.970Z,9.30
2017-11-03T00:41:32.638Z,9.20
2017-11-03T00:44:00.266Z,9.30
2017-11-03T00:46:27.962Z,9.30
2017-11-03T00:48:55.613Z,9.20
2017-11-03T00:51:24.003Z,9.10
2017-11-03T00:53:51.705Z,9.10
2017-11-03T00:56:19.333Z,9.20
2017-11-03T00:58:46.946Z,9.10
2017-11-03T01:01:14.600Z,9.20
2017-11-03T01:03:42.209Z,9.20
2017-11-03T01:06:09.864Z,9.20
2017-11-03T01:08:38.599Z,9.20
2017-11-03T01:11:06.226Z,9.10
2017-11-03T01:13:33.879Z,9.20
2017-11-03T01:16:01.498Z,9.20
2017-11-03T01:18:29.149Z,9.20
2017-11-03T01:20:56.770Z,9.30
2017-11-03T01:23:25.157Z,9.40
2017-11-03T01:25:52.830Z,9.40
2017-11-03T01:28:20.459Z,9.40
2017-11-03T01:30:48.109Z,9.40
2017-11-03T01:33:15.728Z,9.40
2017-11-03T01:35:44.118Z,9.20
2017-11-03T01:38:11.769Z,9.10
2017-11-03T01:40:39.408Z,9.10
2017-11-03T01:43:07.050Z,9.10
2017-11-03T01:45:34.662Z,9.00
2017-11-03T01:48:03.041Z,9.10
2017-11-03T01:50:31.458Z,9.10
2017-11-03T01:52:59.075Z,9.10
2017-11-03T01:55:26.722Z,9.10
2017-11-03T01:57:54.342Z,9.20
2017-11-03T02:00:22.786Z,9.20
2017-11-03T02:02:50.440Z,9.20
2017-11-03T02:05:18.104Z,9.30
2017-11-03T02:07:46.518Z,9.30
2017-11-03T02:10:14.143Z,9.20
2017-11-03T02:12:41.764Z,9.20
2017-11-03T02:15:10.175Z,9.10
2017-11-03T02:17:37.806Z,9.10
2017-11-03T02:20:05.454Z,9.10
2017-11-03T02:22:33.076Z,9.20
2017-11-03T02:25:00.690Z,9.10
2017-11-03T02:27:28.358Z,9.10
2017-11-03T02:29:56.028Z,9.20
2017-11-03T02:32:23.706Z,9.20
2017-11-03T02:34:51.335Z,9.20
2017-11-03T02:37:18.963Z,9.20
2017-11-03T02:39:46.636Z,9.20
2017-11-03T02:42:14.263Z,9.20
2017-11-03T02:44:41.917Z,9.10
2017-11-03T02:47:09.530Z,9.10
2017-11-03T02:49:37.916Z,9.00
2017-11-03T02:52:05.568Z,8.90
2017-11-03T02:54:33.190Z,9.00
2017-11-03T02:57:00.862Z,9.00
2017-11-03T02:59:28.488Z,9.10
2017-11-03T03:01:56.099Z,9.00
2017-11-03T03:04:23.750Z,9.00
2017-11-03T03:06:51.392Z,9.00
2017-11-03T03:09:19.043Z,9.10
2017-11-03T03:11:46.665Z,9.00
2017-11-03T03:14:14.293Z,9.00
2017-11-03T03:16:41.953Z,9.00
2017-11-03T03:19:09.581Z,9.00
2017-11-03T03:21:37.238Z,8.90
2017-11-03T03:24:04.854Z,9.00
2017-11-03T03:26:32.706Z,9.00
2017-11-03T03:29:00.419Z,9.00
2017-11-03T03:31:28.043Z,9.00
2017-11-03T03:33:55.700Z,9.00
2017-11-03T03:36:23.326Z,9.00
2017-11-03T03:38:50.946Z,9.00
2017-11-03T03:41:18.586Z,9.00
2017-11-03T03:43:46.232Z,9.00
2017-11-03T03:46:13.878Z,9.00
2017-11-03T03:48:41.498Z,9.00
2017-11-03T03:51:09.886Z,8.90
2017-11-03T03:53:37.544Z,8.90
2017-11-03T03:56:05.171Z,8.90
2017-11-03T03:58:33.581Z,8.90
2017-11-03T04:01:01.210Z,8.90
2017-11-03T04:03:28.827Z,8.90
2017-11-03T04:05:57.242Z,8.80
2017-11-03T04:08:24.873Z,8.80
2017-11-03T04:10:52.566Z,8.90
2017-11-03T04:13:20.954Z,8.90
2017-11-03T04:15:49.334Z,8.90
2017-11-03T04:18:16.991Z,8.90
2017-11-03T04:20:44.656Z,8.90
2017-11-03T04:23:12.313Z,8.90
2017-11-03T04:25:39.927Z,9.00
2017-11-03T04:28:07.543Z,9.00
2017-11-03T04:30:35.958Z,9.00
2017-11-03T04:33:03.631Z,9.00
2017-11-03T04:35:31.283Z,9.00
2017-11-03T04:37:58.899Z,9.00
2017-11-03T04:40:26.534Z,9.10
2017-11-03T04:42:54.196Z,9.10
2017-11-03T04:45:22.221Z,9.10
2017-11-03T04:47:49.871Z,9.10
2017-11-03T04:50:17.530Z,9.10
2017-11-03T04:52:45.156Z,9.10
2017-11-03T04:55:12.809Z,9.10
2017-11-03T04:57:40.422Z,9.00
2017-11-03T05:00:08.838Z,9.00
2017-11-03T05:02:36.491Z,8.90
2017-11-03T05:05:04.446Z,9.00
2017-11-03T05:07:32.107Z,8.90
2017-11-03T05:09:59.742Z,8.90
2017-11-03T05:12:27.385Z,9.00
2017-11-03T05:14:55.030Z,8.90
2017-11-03T05:17:22.677Z,8.90
2017-11-03T05:19:50.387Z,8.90
2017-11-03T05:22:18.008Z,8.80
2017-11-03T05:24:46.439Z,8.70
2017-11-03T05:27:14.062Z,8.70
2017-11-03T05:29:41.677Z,8.70
2017-11-03T05:32:10.093Z,8.70
2017-11-03T05:34:37.708Z,8.60
2017-11-03T05:37:06.139Z,8.70
2017-11-03T05:39:34.523Z,8.70
2017-11-03T05:42:02.906Z,8.70
2017-11-03T05:44:30.570Z,8.60
2017-11-03T05:46:58.189Z,8.60
2017-11-03T05:49:25.834Z,8.70
2017-11-03T05:51:53.450Z,8.70
2017-11-03T05:54:21.071Z,8.70
2017-11-03T05:56:48.717Z,8.70
2017-11-03T05:59:16.334Z,8.70
2017-11-03T06:01:43.991Z,8.60
2017-11-03T06:04:11.618Z,8.60
2017-11-03T06:06:39.234Z,8.60
2017-11-03T06:09:07.655Z,8.60
2017-11-03T06:11:35.290Z,8.50
2017-11-03T06:14:02.957Z,8.60
2017-11-03T06:16:30.582Z,8.60
2017-11-03T06:18:58.210Z,8.60
2017-11-03T06:21:25.855Z,8.60
2017-11-03T06:23:53.475Z,8.70
2017-11-03T06:26:21.886Z,8.70
2017-11-03T06:28:49.519Z,8.70
2017-11-03T06:31:17.154Z,8.70
2017-11-03T06:33:44.809Z,8.70
2017-11-03T06:36:12.434Z,8.60
2017-11-03T06:38:40.853Z,8.70
2017-11-03T06:41:08.478Z,8.70
2017-11-03T06:43:36.094Z,8.80
2017-11-03T06:46:04.518Z,8.90
2017-11-03T06:48:32.135Z,8.80
2017-11-03T06:50:59.786Z,8.90
2017-11-03T06:53:27.399Z,9.10
2017-11-03T06:55:55.781Z,9.10
2017-11-03T06:58:23.435Z,9.10
2017-11-03T07:00:51.060Z,9.20
2017-11-03T07:03:18.780Z,9.20
2017-11-03T07:05:47.174Z,9.30
2017-11-03T07:08:14.793Z,9.20
2017-11-03T07:10:42.434Z,9.30
2017-11-03T07:13:10.055Z,9.30
2017-11-03T07:15:37.709Z,9.30
2017-11-03T07:18:05.330Z,9.40
2017-11-03T07:20:32.963Z,9.30
2017-11-03T07:23:00.606Z,9.40
2017-11-03T07:25:28.221Z,9.40
2017-11-03T07:27:56.630Z,9.50
2017-11-03T07:30:24.246Z,9.50
2017-11-03T07:32:51.898Z,9.60
2017-11-03T07:35:19.542Z,9.50
2017-11-03T07:37:47.174Z,9.50
2017-11-03T07:40:15.592Z,9.70
2017-11-03T07:42:43.207Z,9.70
2017-11-03T07:45:10.829Z,9.70
2017-11-03T07:47:39.238Z,9.80
2017-11-03T07:50:06.853Z,9.80
2017-11-03T07:52:34.497Z,9.80
2017-11-03T07:55:02.116Z,9.80
2017-11-03T07:57:29.730Z,9.90
2017-11-03T07:59:57.374Z,9.90
2017-11-03T08:02:25.000Z,9.90
2017-11-03T08:04:52.650Z,9.80
2017-11-03T08:07:20.270Z,9.70
2017-11-03T08:09:48.654Z,9.90
2017-11-03T08:12:16.307Z,9.90
2017-11-03T08:14:43.929Z,10.00
2017-11-03T08:17:12.352Z,10.00
2017-11-03T08:19:39.978Z,10.00
2017-11-03T08:22:07.667Z,10.00
2017-11-03T08:24:35.321Z,10.10
2017-11-03T08:27:02.970Z,10.20
2017-11-03T08:29:31.389Z,10.40
2017-11-03T08:31:59.011Z,10.30
2017-11-03T08:34:26.642Z,10.40
2017-11-03T08:36:54.368Z,10.40
2017-11-03T08:39:22.759Z,10.50
2017-11-03T08:41:50.423Z,10.50
2017-11-03T08:44:18.049Z,10.50
2017-11-03T08:46:46.437Z,10.50
2017-11-03T08:49:14.098Z,10.50
2017-11-03T08:51:42.089Z,10.50
2017-11-03T08:54:09.743Z,10.70
2017-11-03T08:56:38.161Z,10.80
2017-11-03T08:59:05.794Z,10.80
2017-11-03T09:01:33.454Z,10.90
2017-11-03T09:04:01.070Z,11.00
2017-11-03T09:06:28.690Z,11.10
2017-11-03T09:08:56.347Z,11.00
2017-11-03T09:11:24.738Z,11.10
2017-11-03T09:13:52.362Z,11.10
2017-11-03T09:16:20.778Z,12.40
2017-11-03T09:18:48.399Z,12.30
2017-11-03T09:21:16.014Z,12.90
2017-11-03T09:23:44.438Z,13.60
2017-11-03T09:26:12.060Z,13.50
2017-11-03T09:28:39.734Z,13.90
2017-11-03T09:31:07.439Z,14.30
2017-11-03T09:33:35.073Z,14.60
2017-11-03T09:36:02.731Z,14.00
2017-11-03T09:38:30.361Z,13.40
2017-11-03T09:40:58.784Z,13.10
2017-11-03T09:43:26.401Z,13.00
2017-11-03T09:45:54.030Z,13.10
2017-11-03T09:48:21.695Z,12.80
2017-11-03T09:50:49.322Z,12.90
2017-11-03T09:53:16.974Z,13.30
2017-11-03T09:55:44.606Z,13.50
2017-11-03T09:58:12.990Z,14.10
2017-11-03T10:00:40.650Z,14.00
2017-11-03T10:03:08.345Z,14.60
2017-11-03T10:05:36.775Z,16.10
2017-11-03T10:08:04.425Z,16.00
2017-11-03T10:10:32.022Z,16.80
2017-11-03T10:12:59.646Z,17.40
2017-11-03T10:15:27.254Z,17.50
2017-11-03T10:17:54.898Z,17.70
2017-11-03T10:20:22.507Z,18.00
2017-11-03T10:22:50.105Z,18.00
2017-11-03T10:25:17.736Z,17.30
2017-11-03T10:27:45.337Z,16.90
2017-11-03T10:30:12.966Z,16.20
2017-11-03T10:32:40.570Z,16.00
2017-11-03T10:35:08.190Z,14.80
2017-11-03T10:37:35.839Z,14.00
2017-11-03T10:40:03.459Z,13.60
2017-11-03T10:42:31.119Z,13.10
2017-11-03T10:44:59.502Z,12.30
2017-11-03T10:47:27.130Z,12.20
2017-11-03T10:49:55.545Z,12.30
2017-11-03T10:52:23.195Z,12.20
2017-11-03T10:54:50.858Z,12.20
2017-11-03T10:57:18.485Z,12.10
2017-11-03T10:59:46.102Z,12.10
2017-11-03T11:02:13.754Z,12.10
2017-11-03T11:04:41.374Z,12.30
2017-11-03T11:07:09.787Z,12.60
2017-11-03T11:09:37.414Z,12.50
2017-11-03T11:12:05.472Z,12.80
2017-11-03T11:14:33.122Z,12.80
2017-11-03T11:17:00.742Z,12.80
2017-11-03T11:19:28.399Z,12.70
2017-11-03T11:21:56.022Z,12.80
2017-11-03T11:24:24.402Z,12.60
2017-11-03T11:26:52.116Z,12.60
2017-11-03T11:29:19.762Z,12.70
2017-11-03T11:31:47.449Z,12.70
2017-11-03T11:34:15.070Z,12.70
2017-11-03T11:36:43.467Z,12.70
2017-11-03T11:39:11.143Z,12.60
2017-11-03T11:41:38.783Z,12.60
2017-11-03T11:44:06.493Z,12.50
2017-11-03T11:46:34.195Z,12.40
2017-11-03T11:49:01.938Z,12.30
2017-11-03T11:51:29.646Z,12.40
2017-11-03T11:53:57.401Z,12.30
2017-11-03T11:56:25.082Z,12.10
2017-11-03T11:58:52.739Z,12.00
2017-11-03T12:01:20.364Z,12.10
2017-11-03T12:03:48.022Z,12.00
2017-11-03T12:06:15.646Z,11.90
2017-11-03T12:08:43.294Z,11.90
2017-11-03T12:11:10.946Z,11.90
2017-11-03T12:13:38.563Z,11.80
2017-11-03T12:16:07.966Z,11.70
2017-11-03T12:18:35.582Z,11.70
2017-11-03T12:21:04.007Z,11.80
2017-11-03T12:23:31.657Z,11.70
2017-11-03T12:25:59.287Z,12.00
2017-11-03T12:28:26.940Z,12.30
2017-11-03T12:30:54.562Z,12.50
2017-11-03T12:33:22.227Z,12.70
2017-11-03T12:35:49.837Z,12.90
2017-11-03T12:38:17.458Z,13.00
2017-11-03T12:40:45.110Z,13.10
2017-11-03T12:43:13.515Z,12.90
2017-11-03T12:45:41.202Z,12.90
2017-11-03T12:48:08.818Z,12.80
2017-11-03T12:50:36.445Z,12.70
2017-11-03T12:53:04.095Z,12.60
2017-11-03T12:55:31.713Z,12.60
2017-11-03T12:58:00.143Z,12.70
2017-11-03T13:00:27.816Z,12.70
2017-11-03T13:02:56.203Z,12.70
2017-11-03T13:05:23.858Z,12.70
2017-11-03T13:07:51.482Z,12.90
2017-11-03T13:10:19.898Z,14.50
2017-11-03T13:12:47.510Z,14.50
2017-11-03T13:15:15.894Z,16.70
2017-11-03T13:17:43.511Z,16.60
2017-11-03T13:20:11.107Z,17.60
2017-11-03T13:22:38.735Z,18.20
2017-11-03T13:25:06.321Z,18.30
2017-11-03T13:27:33.922Z,18.70
2017-11-03T13:30:01.546Z,18.30
2017-11-03T13:32:29.914Z,16.20
2017-11-03T13:34:58.313Z,15.50
2017-11-03T13:37:25.934Z,15.40
2017-11-03T13:39:53.576Z,14.80
2017-11-03T13:42:21.229Z,14.20
2017-11-03T13:44:48.855Z,13.60
2017-11-03T13:47:16.541Z,13.30
2017-11-03T13:49:44.169Z,13.20
2017-11-03T13:52:11.795Z,13.60
2017-11-03T13:54:39.461Z,14.00
2017-11-03T13:57:07.087Z,13.90
2017-11-03T13:59:34.748Z,13.70
2017-11-03T14:02:02.366Z,13.40
2017-11-03T14:04:30.765Z,13.10
2017-11-03T14:06:58.427Z,13.00
2017-11-03T14:09:26.058Z,12.90
2017-11-03T14:11:53.702Z,12.80
2017-11-03T14:14:21.330Z,12.60
2017-11-03T14:16:49.714Z,12.60
2017-11-03T14:19:17.358Z,12.50
2017-11-03T14:21:44.977Z,12.60
2017-11-03T14:24:13.398Z,12.50
2017-11-03T14:26:41.012Z,12.50
2017-11-03T14:29:08.630Z,12.50
2017-11-03T14:31:37.039Z,12.50
2017-11-03T14:34:04.658Z,12.40
2017-11-03T14:36:32.313Z,12.50
2017-11-03T14:38:59.937Z,12.50
2017-11-03T14:41:27.562Z,12.40
2017-11-03T14:43:55.226Z,12.30
2017-11-03T14:46:23.629Z,12.10
2017-11-03T14:48:51.274Z,12.10
2017-11-03T14:51:18.886Z,12.10
2017-11-03T14:53:46.507Z,12.00
2017-11-03T14:56:14.156Z,11.90
2017-11-03T14:58:41.777Z,11.80
2017-11-03T15:01:09.426Z,11.60
2017-11-03T15:03:37.033Z,11.40
2017-11-03T15:06:04.654Z,11.30
2017-11-03T15:08:33.072Z,11.10
2017-11-03T15:11:00.678Z,11.10
2017-11-03T15:13:29.094Z,10.80
2017-11-03T15:15:56.870Z,10.70
2017-11-03T15:18:24.567Z,10.70
2017-11-03T15:20:52.268Z,10.60
2017-11-03T15:23:19.889Z,10.50
2017-11-03T15:25:47.541Z,10.30
2017-11-03T15:28:15.162Z,10.10
2017-11-03T15:30:42.819Z,10.00
2017-11-03T15:33:10.475Z,10.00
2017-11-03T15:35:38.099Z,9.90
2017-11-03T15:38:06.095Z,9.70
2017-11-03T15:40:33.709Z,9.60
2017-11-03T15:43:01.522Z,9.50
2017-11-03T15:45:29.551Z,9.40
2017-11-03T15:47:57.167Z,9.30
2017-11-03T15:50:24.820Z,9.10
2017-11-03T15:52:52.464Z,9.00
2017-11-03T15:55:20.082Z,8.90
2017-11-03T15:57:47.723Z,8.90
2017-11-03T16:00:15.335Z,8.80
2017-11-03T16:02:42.978Z,8.70
2017-11-03T16:05:10.599Z,8.70
2017-11-03T16:07:38.262Z,8.70
2017-11-03T16:10:05.950Z,8.50
2017-11-03T16:12:33.575Z,8.50
2017-11-03T16:15:02.009Z,8.20
2017-11-03T16:17:30.857Z,8.20
2017-11-03T16:19:58.586Z,8.10
2017-11-03T16:22:30.084Z,8.00
2017-11-03T16:24:58.372Z,8.00
2017-11-03T16:27:27.105Z,8.00
2017-11-03T16:29:55.522Z,8.00
2017-11-03T16:32:23.279Z,7.90
2017-11-03T16:34:51.112Z,7.80
2017-11-03T16:37:18.747Z,7.80
2017-11-03T16:39:48.118Z,7.60
2017-11-03T16:42:16.666Z,7.60
2017-11-03T16:44:44.323Z,7.50
2017-11-03T16:47:11.971Z,7.50
2017-11-03T16:49:39.599Z,7.50
2017-11-03T16:52:07.281Z,7.50
2017-11-03T16:54:35.971Z,7.30
2017-11-03T16:57:03.793Z,7.30
2017-11-03T16:59:31.446Z,7.20
2017-11-03T17:02:00.006Z,7.10
2017-11-03T17:04:29.203Z,7.10
2017-11-03T17:06:57.327Z,7.00
2017-11-03T17:09:25.624Z,7.00
2017-11-03T17:11:53.346Z,7.00
2017-11-03T17:14:21.006Z,6.90
2017-11-03T17:16:49.540Z,6.80
2017-11-03T17:19:17.558Z,6.80
2017-11-03T17:21:46.624Z,6.70
2017-11-03T17:24:14.574Z,6.70
2017-11-03T17:26:43.031Z,6.60
2017-11-03T17:29:12.844Z,6.60
2017-11-03T17:31:40.572Z,6.50
2017-11-03T17:34:09.018Z,6.50
2017-11-03T17:36:36.696Z,6.50
2017-11-03T17:39:06.626Z,6.50
2017-11-03T17:41:34.298Z,6.40
2017-11-03T17:44:01.949Z,6.50
2017-11-03T17:46:29.623Z,6.40
2017-11-03T17:48:57.289Z,6.40
2017-11-03T17:51:24.918Z,6.40
2017-11-03T17:53:52.619Z,6.30
2017-11-03T17:56:20.246Z,6.20
2017-11-03T17:58:47.881Z,6.20
2017-11-03T18:01:16.547Z,6.20
2017-11-03T18:03:44.236Z,6.20
2017-11-03T18:06:11.975Z,6.10
2017-11-03T18:08:40.090Z,6.10
2017-11-03T18:11:08.479Z,6.00
2017-11-03T18:13:36.740Z,5.90
2017-11-03T18:16:04.430Z,6.00
2017-11-03T18:18:32.133Z,5.90
2017-11-03T18:21:00.289Z,5.90
2017-11-03T18:23:28.274Z,5.90
2017-11-03T18:25:57.317Z,6.00
2017-11-03T18:28:25.275Z,5.90
2017-11-03T18:30:53.010Z,5.80
2017-11-03T18:33:21.208Z,5.80
2017-11-03T18:35:49.526Z,5.80
2017-11-03T18:38:17.446Z,5.70
2017-11-03T18:40:45.105Z,5.80
2017-11-03T18:43:12.776Z,5.70
2017-11-03T18:45:41.319Z,5.70
2017-11-03T18:48:09.007Z,5.60
2017-11-03T18:50:36.699Z,5.60
2017-11-03T18:53:04.475Z,5.60
2017-11-03T18:55:32.922Z,5.50
2017-11-03T18:58:00.567Z,5.50
2017-11-03T19:00:28.368Z,5.50
2017-11-03T19:02:56.603Z,5.50
2017-11-03T19:05:25.044Z,5.40
2017-11-03T19:07:52.720Z,5.30
2017-11-03T19:10:20.676Z,5.40
2017-11-03T19:12:48.341Z,5.30
2017-11-03T19:15:16.039Z,5.20
2017-11-03T19:17:43.700Z,5.20
2017-11-03T19:20:11.635Z,5.20
2017-11-03T19:22:39.246Z,5.30
2017-11-03T19:25:06.922Z,5.20
2017-11-03T19:27:34.652Z,5.20
2017-11-03T19:30:02.602Z,5.20
2017-11-03T19:32:30.349Z,5.20
2017-11-03T19:34:58.827Z,5.10
2017-11-03T19:37:28.304Z,5.10
2017-11-03T19:39:56.271Z,5.20
2017-11-03T19:42:23.930Z,5.10
2017-11-03T19:44:51.686Z,5.10
2017-11-03T19:47:19.330Z,5.10
2017-11-03T19:49:46.950Z,5.00
2017-11-03T19:52:14.641Z,5.00
2017-11-03T19:54:43.269Z,5.00
2017-11-03T19:57:11.131Z,5.00
2017-11-03T19:59:39.254Z,4.90
2017-11-03T20:02:07.158Z,4.90
2017-11-03T20:04:34.885Z,4.80
2017-11-03T20:07:02.502Z,4.90
2017-11-03T20:09:30.145Z,4.90
2017-11-03T20:11:59.138Z,4.80
2017-11-03T20:14:26.787Z,4.80
2017-11-03T20:16:54.435Z,4.80
2017-11-03T20:19:23.267Z,4.70
2017-11-03T20:21:50.910Z,4.60
2017-11-03T20:24:18.523Z,4.60
2017-11-03T20:26:46.166Z,4.50
2017-11-03T20:29:14.570Z,4.50
2017-11-03T20:31:42.681Z,4.50
2017-11-03T20:34:10.345Z,4.50
2017-11-03T20:36:37.959Z,4.50
2017-11-03T20:39:05.580Z,4.50
2017-11-03T20:41:34.003Z,4.50
2017-11-03T20:44:01.622Z,4.40
2017-11-03T20:46:37.620Z,4.40
2017-11-03T20:49:06.006Z,4.50
2017-11-03T20:51:34.432Z,4.40
2017-11-03T20:54:02.054Z,4.30
2017-11-03T20:56:30.115Z,4.40
2017-11-03T20:58:57.828Z,4.40
2017-11-03T21:01:25.464Z,4.40
2017-11-03T21:03:53.179Z,4.40
2017-11-03T21:06:20.855Z,4.40
2017-11-03T21:08:49.243Z,4.40
2017-11-03T21:11:18.118Z,4.30
2017-11-03T21:13:45.883Z,4.30
2017-11-03T21:16:13.559Z,4.30
2017-11-03T21:18:41.177Z,4.30
2017-11-03T21:21:08.839Z,4.20
2017-11-03T21:23:36.499Z,4.20
2017-11-03T21:26:04.126Z,4.10
2017-11-03T21:28:31.780Z,4.10
2017-11-03T21:30:59.398Z,4.10
2017-11-03T21:33:27.016Z,4.10
2017-11-03T21:35:55.471Z,4.10
2017-11-03T21:38:23.883Z,4.10
2017-11-03T21:40:51.532Z,4.00
2017-11-03T21:43:19.170Z,4.00
2017-11-03T21:45:46.786Z,4.00
2017-11-03T21:48:15.203Z,3.90
2017-11-03T21:50:42.814Z,3.90
2017-11-03T21:53:10.470Z,3.90
2017-11-03T21:55:38.088Z,3.90
2017-11-03T21:58:06.474Z,3.90
2017-11-03T22:00:34.334Z,3.80
2017-11-03T22:03:02.382Z,3.90
2017-11-03T22:05:30.039Z,3.90
2017-11-03T22:07:57.831Z,3.90
2017-11-03T22:10:25.549Z,3.90
2017-11-03T22:12:53.421Z,3.80
2017-11-03T22:15:21.043Z,3.80
2017-11-03T22:17:48.695Z,3.80
2017-11-03T22:20:16.314Z,3.80
2017-11-03T22:22:44.101Z,4.00
2017-11-03T22:25:11.755Z,4.10
2017-11-03T22:27:39.374Z,4.00
2017-11-03T22:30:07.168Z,4.00
2017-11-03T22:32:34.946Z,4.10
2017-11-03T22:35:03.334Z,4.20
2017-11-03T22:37:31.014Z,4.10
2017-11-03T22:39:58.679Z,4.20
2017-11-03T22:42:27.243Z,4.10
2017-11-03T22:44:55.023Z,4.10
2017-11-03T22:47:23.566Z,4.00
2017-11-03T22:49:51.454Z,4.00
2017-11-03T22:52:19.242Z,4.00
2017-11-03T22:54:46.939Z,4.10
2017-11-03T22:57:14.625Z,4.30
2017-11-03T22:59:42.276Z,4.20
2017-11-03T23:02:10.046Z,4.20
2017-11-03T23:04:37.674Z,4.10
2017-11-03T23:07:05.410Z,4.20
2017-11-03T23:09:33.511Z,4.10
2017-11-03T23:12:01.183Z,4.20
2017-11-03T23:14:28.893Z,4.10
2017-11-03T23:16:56.525Z,4.30
2017-11-03T23:19:24.186Z,4.30
2017-11-03T23:21:56.768Z,4.30
2017-11-03T23:24:25.302Z,4.60
2017-11-03T23:26:53.092Z,4.50
2017-11-03T23:29:21.543Z,4.50
2017-11-03T23:31:49.218Z,4.40
2017-11-03T23:34:17.635Z,4.40
2017-11-03T23:36:45.318Z,4.30
2017-11-03T23:39:13.770Z,4.60
2017-11-03T23:41:41.381Z,4.60
2017-11-03T23:44:09.163Z,4.50
2017-11-03T23:46:36.859Z,4.90
2017-11-03T23:49:04.671Z,5.30
2017-11-03T23:51:33.190Z,5.80
2017-11-03T23:54:00.825Z,5.80
2017-11-03T23:56:28.523Z,6.20
2017-11-03T23:58:56.577Z,6.40
